NOO5525 TNCA-SKBO
Flight info
| Callsign | NOO5525 |
|---|---|
| Flight time | 1h 32m |
| Altitude | 36000 |
| Route | NORE1F NOREX UL450 STB UW1 LFA UW34 CUC UW26 EJA/N0446F370 UW91 ILSEV ILSE5E |
| Aircraft | B738/M-SDE2E3FGHIRWXY/LB1 |
Departure
| Time | 2026-05-07 21:10 |
|---|---|
| Airport | Queen Beatrix International Airport (TNCA) |
Arrival
| Time | 2026-05-07 22:43 |
|---|---|
| Airport | El Dorado International Airport (SKBO) |
| Time | Latitude | Longitude | Altitude | Speed | Heading |
|---|---|---|---|---|---|
| 2026-05-07 20:50 | 12.50328 | -70.01019 | 63 ft | 0 kts | 22° |
| 2026-05-07 20:57 | 12.50319 | -70.01022 | 63 ft | 2 kts | 21° |
| 2026-05-07 20:57 | 12.50306 | -70.01028 | 62 ft | 2 kts | 22° |
| 2026-05-07 20:58 | 12.50291 | -70.01033 | 62 ft | 2 kts | 7° |
| 2026-05-07 20:58 | 12.50277 | -70.01032 | 62 ft | 2 kts | 345° |
| 2026-05-07 20:58 | 12.50263 | -70.01026 | 62 ft | 2 kts | 324° |
| 2026-05-07 20:58 | 12.50252 | -70.01015 | 63 ft | 2 kts | 302° |
| 2026-05-07 20:59 | 12.50246 | -70.01001 | 63 ft | 2 kts | 281° |
| 2026-05-07 20:59 | 12.50244 | -70.00987 | 63 ft | 2 kts | 284° |
| 2026-05-07 20:59 | 12.50240 | -70.00971 | 64 ft | 2 kts | 283° |
| 2026-05-07 20:59 | 12.50236 | -70.00957 | 64 ft | 2 kts | 284° |
| 2026-05-07 21:00 | 12.50235 | -70.00951 | 64 ft | 0 kts | 284° |
| 2026-05-07 21:01 | 12.50236 | -70.00954 | 64 ft | 1 kts | 284° |
| 2026-05-07 21:01 | 12.50246 | -70.01001 | 63 ft | 9 kts | 284° |
| 2026-05-07 21:02 | 12.50257 | -70.01072 | 61 ft | 11 kts | 258° |
| 2026-05-07 21:02 | 12.50233 | -70.01152 | 60 ft | 12 kts | 272° |
| 2026-05-07 21:02 | 12.50252 | -70.01243 | 56 ft | 13 kts | 284° |
| 2026-05-07 21:02 | 12.50277 | -70.01344 | 53 ft | 14 kts | 284° |
| 2026-05-07 21:03 | 12.50300 | -70.01448 | 51 ft | 15 kts | 283° |
| 2026-05-07 21:03 | 12.50327 | -70.01555 | 46 ft | 15 kts | 283° |
| 2026-05-07 21:03 | 12.50353 | -70.01663 | 42 ft | 16 kts | 283° |
| 2026-05-07 21:03 | 12.50379 | -70.01779 | 39 ft | 16 kts | 282° |
| 2026-05-07 21:04 | 12.50405 | -70.01892 | 35 ft | 16 kts | 283° |
| 2026-05-07 21:04 | 12.50433 | -70.02001 | 32 ft | 15 kts | 284° |
| 2026-05-07 21:04 | 12.50457 | -70.02099 | 30 ft | 13 kts | 283° |
| 2026-05-07 21:04 | 12.50478 | -70.02193 | 28 ft | 13 kts | 282° |
| 2026-05-07 21:05 | 12.50497 | -70.02286 | 26 ft | 13 kts | 284° |
| 2026-05-07 21:05 | 12.50521 | -70.02382 | 25 ft | 14 kts | 285° |
| 2026-05-07 21:05 | 12.50549 | -70.02488 | 24 ft | 15 kts | 284° |
| 2026-05-07 21:05 | 12.50572 | -70.02589 | 23 ft | 13 kts | 281° |
| 2026-05-07 21:06 | 12.50565 | -70.02673 | 23 ft | 10 kts | 243° |
| 2026-05-07 21:06 | 12.50514 | -70.02717 | 22 ft | 8 kts | 189° |
| 2026-05-07 21:06 | 12.50461 | -70.02726 | 23 ft | 6 kts | 188° |
| 2026-05-07 21:06 | 12.50430 | -70.02723 | 23 ft | 3 kts | 144° |
| 2026-05-07 21:07 | 12.50414 | -70.02691 | 23 ft | 6 kts | 99° |
| 2026-05-07 21:07 | 12.50414 | -70.02688 | 23 ft | 0 kts | 99° |
| 2026-05-07 21:09 | 12.50387 | -70.02560 | 24 ft | 50 kts | 103° |
| 2026-05-07 21:10 | 12.50286 | -70.02136 | 30 ft | 100 kts | 104° |
| 2026-05-07 21:10 | 12.50074 | -70.01262 | 66 ft | 149 kts | 104° |
| 2026-05-07 21:10 | 12.49748 | -70.00253 | 647 ft | 153 kts | 101° |
| 2026-05-07 21:10 | 12.49534 | -69.99123 | 1116 ft | 169 kts | 99° |
| 2026-05-07 21:11 | 12.49256 | -69.97868 | 1484 ft | 196 kts | 101° |
| 2026-05-07 21:11 | 12.48928 | -69.96482 | 2144 ft | 204 kts | 102° |
| 2026-05-07 21:11 | 12.47934 | -69.93615 | 3370 ft | 228 kts | 128° |
| 2026-05-07 21:12 | 12.46545 | -69.92767 | 4089 ft | 243 kts | 163° |
| 2026-05-07 21:12 | 12.44843 | -69.92760 | 4901 ft | 250 kts | 182° |
| 2026-05-07 21:12 | 12.43165 | -69.93277 | 5554 ft | 265 kts | 208° |
| 2026-05-07 21:12 | 12.41821 | -69.94589 | 6437 ft | 268 kts | 225° |
| 2026-05-07 21:13 | 12.40601 | -69.96007 | 7131 ft | 272 kts | 223° |
| 2026-05-07 21:13 | 12.39295 | -69.97424 | 7908 ft | 274 kts | 223° |
| 2026-05-07 21:13 | 12.37998 | -69.98827 | 8667 ft | 276 kts | 223° |
| 2026-05-07 21:13 | 12.36659 | -70.00279 | 9432 ft | 279 kts | 223° |
| 2026-05-07 21:14 | 12.35318 | -70.01718 | 10146 ft | 283 kts | 223° |
| 2026-05-07 21:14 | 12.33929 | -70.03201 | 10438 ft | 304 kts | 223° |
| 2026-05-07 21:14 | 12.32402 | -70.04835 | 10675 ft | 326 kts | 223° |
| 2026-05-07 21:14 | 12.30713 | -70.06437 | 11138 ft | 336 kts | 212° |
| 2026-05-07 21:15 | 12.28695 | -70.07686 | 11812 ft | 340 kts | 206° |
| 2026-05-07 21:15 | 12.26638 | -70.08889 | 12440 ft | 347 kts | 207° |
| 2026-05-07 21:15 | 12.24553 | -70.10152 | 13163 ft | 351 kts | 208° |
| 2026-05-07 21:15 | 12.22443 | -70.11428 | 13842 ft | 357 kts | 208° |
| 2026-05-07 21:16 | 12.20303 | -70.12710 | 14531 ft | 361 kts | 208° |
| 2026-05-07 21:16 | 12.18120 | -70.14020 | 15218 ft | 366 kts | 208° |
| 2026-05-07 21:16 | 12.15912 | -70.15350 | 15877 ft | 371 kts | 208° |
| 2026-05-07 21:16 | 12.13681 | -70.16689 | 16516 ft | 375 kts | 209° |
| 2026-05-07 21:17 | 12.11425 | -70.18044 | 17146 ft | 380 kts | 209° |
| 2026-05-07 21:17 | 12.09140 | -70.19415 | 17741 ft | 385 kts | 209° |
| 2026-05-07 21:17 | 12.06826 | -70.20804 | 18349 ft | 388 kts | 210° |
| 2026-05-07 21:17 | 12.04497 | -70.22199 | 18939 ft | 392 kts | 210° |
| 2026-05-07 21:18 | 12.02136 | -70.23614 | 19516 ft | 396 kts | 210° |
| 2026-05-07 21:18 | 11.99737 | -70.25051 | 20087 ft | 400 kts | 210° |
| 2026-05-07 21:18 | 11.97352 | -70.26481 | 20638 ft | 403 kts | 210° |
| 2026-05-07 21:18 | 11.94945 | -70.27924 | 21163 ft | 406 kts | 210° |
| 2026-05-07 21:19 | 11.92483 | -70.29399 | 21686 ft | 410 kts | 210° |
| 2026-05-07 21:19 | 11.90020 | -70.30875 | 22193 ft | 413 kts | 211° |
| 2026-05-07 21:19 | 11.87533 | -70.32366 | 22661 ft | 417 kts | 211° |
| 2026-05-07 21:19 | 11.85041 | -70.33860 | 23137 ft | 420 kts | 211° |
| 2026-05-07 21:20 | 11.82516 | -70.35372 | 23590 ft | 423 kts | 211° |
| 2026-05-07 21:20 | 11.79988 | -70.36885 | 24030 ft | 426 kts | 211° |
| 2026-05-07 21:20 | 11.77443 | -70.38409 | 24511 ft | 427 kts | 211° |
| 2026-05-07 21:20 | 11.74865 | -70.39953 | 24952 ft | 430 kts | 211° |
| 2026-05-07 21:21 | 11.72283 | -70.41498 | 25364 ft | 433 kts | 211° |
| 2026-05-07 21:21 | 11.69710 | -70.43035 | 25795 ft | 434 kts | 211° |
| 2026-05-07 21:21 | 11.67106 | -70.44590 | 26180 ft | 437 kts | 211° |
| 2026-05-07 21:21 | 11.64454 | -70.46158 | 26578 ft | 439 kts | 211° |
| 2026-05-07 21:22 | 11.61811 | -70.47702 | 26918 ft | 442 kts | 211° |
| 2026-05-07 21:22 | 11.59143 | -70.49258 | 27300 ft | 444 kts | 211° |
| 2026-05-07 21:22 | 11.56464 | -70.50829 | 27665 ft | 446 kts | 211° |
| 2026-05-07 21:22 | 11.53769 | -70.52412 | 28017 ft | 448 kts | 211° |
| 2026-05-07 21:23 | 11.51076 | -70.53991 | 28358 ft | 450 kts | 211° |
| 2026-05-07 21:23 | 11.48360 | -70.55582 | 28670 ft | 453 kts | 211° |
| 2026-05-07 21:23 | 11.45642 | -70.57190 | 28997 ft | 454 kts | 212° |
| 2026-05-07 21:23 | 11.42954 | -70.58839 | 29327 ft | 455 kts | 213° |
| 2026-05-07 21:24 | 11.40227 | -70.60531 | 29614 ft | 458 kts | 213° |
| 2026-05-07 21:24 | 11.37507 | -70.62208 | 29905 ft | 460 kts | 213° |
| 2026-05-07 21:24 | 11.34784 | -70.63876 | 30220 ft | 461 kts | 213° |
| 2026-05-07 21:24 | 11.32013 | -70.65569 | 30649 ft | 459 kts | 212° |
| 2026-05-07 21:25 | 11.29290 | -70.67232 | 31014 ft | 459 kts | 212° |
| 2026-05-07 21:25 | 11.26579 | -70.68884 | 31348 ft | 459 kts | 212° |
| 2026-05-07 21:25 | 11.23842 | -70.70554 | 31695 ft | 458 kts | 212° |
| 2026-05-07 21:25 | 11.21121 | -70.72218 | 32016 ft | 459 kts | 212° |
| 2026-05-07 21:26 | 11.18370 | -70.73905 | 32337 ft | 459 kts | 212° |
| 2026-05-07 21:26 | 11.15674 | -70.75559 | 32660 ft | 459 kts | 212° |
| 2026-05-07 21:26 | 11.12933 | -70.77237 | 32971 ft | 459 kts | 212° |
| 2026-05-07 21:26 | 11.10210 | -70.78899 | 33276 ft | 459 kts | 212° |
| 2026-05-07 21:27 | 11.07470 | -70.80569 | 33573 ft | 459 kts | 212° |
| 2026-05-07 21:27 | 11.04770 | -70.82217 | 33868 ft | 459 kts | 212° |
| 2026-05-07 21:27 | 11.02036 | -70.83883 | 34155 ft | 459 kts | 212° |
| 2026-05-07 21:27 | 10.99279 | -70.85564 | 34446 ft | 458 kts | 212° |
| 2026-05-07 21:28 | 10.96570 | -70.87225 | 34779 ft | 457 kts | 212° |
| 2026-05-07 21:28 | 10.93874 | -70.88877 | 35088 ft | 456 kts | 212° |
| 2026-05-07 21:28 | 10.91133 | -70.90553 | 35408 ft | 455 kts | 212° |
| 2026-05-07 21:28 | 10.88429 | -70.92205 | 35700 ft | 453 kts | 212° |
| 2026-05-07 21:29 | 10.85739 | -70.93846 | 35967 ft | 453 kts | 212° |
| 2026-05-07 21:29 | 10.83044 | -70.95491 | 35997 ft | 456 kts | 212° |
| 2026-05-07 21:29 | 10.77621 | -70.98802 | 35999 ft | 453 kts | 212° |
| 2026-05-07 21:30 | 10.72254 | -71.02074 | 36000 ft | 450 kts | 212° |
| 2026-05-07 21:30 | 10.66889 | -71.05285 | 36000 ft | 450 kts | 209° |
| 2026-05-07 21:31 | 10.61303 | -71.08188 | 36000 ft | 452 kts | 207° |
| 2026-05-07 21:31 | 10.55737 | -71.11106 | 36000 ft | 452 kts | 208° |
| 2026-05-07 21:32 | 10.50197 | -71.14027 | 35999 ft | 450 kts | 208° |
| 2026-05-07 21:32 | 10.44677 | -71.16934 | 36000 ft | 450 kts | 208° |
| 2026-05-07 21:33 | 10.39113 | -71.19871 | 36000 ft | 449 kts | 208° |
| 2026-05-07 21:33 | 10.33610 | -71.22779 | 36000 ft | 450 kts | 208° |
| 2026-05-07 21:34 | 10.28067 | -71.25705 | 35999 ft | 449 kts | 208° |
| 2026-05-07 21:34 | 10.22554 | -71.28616 | 35999 ft | 448 kts | 208° |
| 2026-05-07 21:35 | 10.17021 | -71.31538 | 36000 ft | 449 kts | 208° |
| 2026-05-07 21:35 | 10.11466 | -71.34470 | 36000 ft | 449 kts | 208° |
| 2026-05-07 21:36 | 10.05935 | -71.37389 | 35999 ft | 449 kts | 208° |
| 2026-05-07 21:36 | 10.00402 | -71.40304 | 36000 ft | 449 kts | 208° |
| 2026-05-07 21:37 | 9.94934 | -71.43182 | 35999 ft | 444 kts | 208° |
| 2026-05-07 21:37 | 9.89449 | -71.46070 | 36000 ft | 443 kts | 208° |
| 2026-05-07 21:38 | 9.83971 | -71.48953 | 36000 ft | 444 kts | 208° |
| 2026-05-07 21:38 | 9.78499 | -71.51833 | 35999 ft | 445 kts | 208° |
| 2026-05-07 21:39 | 9.73051 | -71.54697 | 35999 ft | 444 kts | 208° |
| 2026-05-07 21:39 | 9.67550 | -71.57589 | 35999 ft | 444 kts | 208° |
| 2026-05-07 21:40 | 9.62092 | -71.60456 | 36000 ft | 444 kts | 208° |
| 2026-05-07 21:40 | 9.56632 | -71.63323 | 35999 ft | 444 kts | 208° |
| 2026-05-07 21:41 | 9.51144 | -71.66204 | 35999 ft | 444 kts | 208° |
| 2026-05-07 21:41 | 9.45692 | -71.69066 | 35999 ft | 444 kts | 208° |
| 2026-05-07 21:42 | 9.40223 | -71.71932 | 35999 ft | 442 kts | 208° |
| 2026-05-07 21:42 | 9.34771 | -71.74792 | 36000 ft | 442 kts | 208° |
| 2026-05-07 21:43 | 9.29340 | -71.77640 | 35999 ft | 442 kts | 208° |
| 2026-05-07 21:43 | 9.23893 | -71.80494 | 36000 ft | 441 kts | 208° |
| 2026-05-07 21:44 | 9.18448 | -71.83345 | 35999 ft | 440 kts | 208° |
| 2026-05-07 21:44 | 9.13050 | -71.86174 | 36000 ft | 439 kts | 208° |
| 2026-05-07 21:45 | 9.07642 | -71.89005 | 35999 ft | 439 kts | 208° |
| 2026-05-07 21:45 | 9.02243 | -71.91832 | 36000 ft | 438 kts | 208° |
| 2026-05-07 21:46 | 8.96850 | -71.94630 | 35999 ft | 437 kts | 207° |
| 2026-05-07 21:46 | 8.91299 | -71.97092 | 36000 ft | 437 kts | 204° |
| 2026-05-07 21:47 | 8.85736 | -71.99543 | 36000 ft | 437 kts | 205° |
| 2026-05-07 21:47 | 8.80172 | -72.02031 | 36000 ft | 437 kts | 205° |
| 2026-05-07 21:48 | 8.74630 | -72.04520 | 36000 ft | 437 kts | 205° |
| 2026-05-07 21:48 | 8.69084 | -72.06980 | 35999 ft | 436 kts | 205° |
| 2026-05-07 21:49 | 8.63584 | -72.09428 | 36000 ft | 435 kts | 205° |
| 2026-05-07 21:49 | 8.58032 | -72.11898 | 36000 ft | 435 kts | 205° |
| 2026-05-07 21:50 | 8.52515 | -72.14359 | 35999 ft | 435 kts | 205° |
| 2026-05-07 21:50 | 8.47009 | -72.16814 | 35999 ft | 434 kts | 206° |
| 2026-05-07 21:51 | 8.41500 | -72.19268 | 36000 ft | 434 kts | 206° |
| 2026-05-07 21:51 | 8.35965 | -72.21733 | 35913 ft | 435 kts | 206° |
| 2026-05-07 21:52 | 8.30443 | -72.24194 | 35912 ft | 433 kts | 206° |
| 2026-05-07 21:52 | 8.25058 | -72.26796 | 35912 ft | 432 kts | 212° |
| 2026-05-07 21:53 | 8.20199 | -72.30295 | 35912 ft | 430 kts | 220° |
| 2026-05-07 21:53 | 8.15474 | -72.33979 | 35912 ft | 430 kts | 219° |
| 2026-05-07 21:54 | 8.10734 | -72.37664 | 35912 ft | 430 kts | 220° |
| 2026-05-07 21:54 | 8.06022 | -72.41364 | 35912 ft | 430 kts | 220° |
| 2026-05-07 21:55 | 8.01319 | -72.45063 | 35912 ft | 430 kts | 220° |
| 2026-05-07 21:55 | 7.96631 | -72.48772 | 35911 ft | 428 kts | 221° |
| 2026-05-07 21:56 | 7.92414 | -72.52943 | 35911 ft | 424 kts | 233° |
| 2026-05-07 21:56 | 7.88979 | -72.57779 | 35912 ft | 424 kts | 237° |
| 2026-05-07 21:57 | 7.85551 | -72.62598 | 35912 ft | 424 kts | 236° |
| 2026-05-07 21:57 | 7.82144 | -72.67438 | 35912 ft | 424 kts | 236° |
| 2026-05-07 21:58 | 7.78735 | -72.72298 | 35912 ft | 425 kts | 236° |
| 2026-05-07 21:58 | 7.75340 | -72.77143 | 35912 ft | 424 kts | 236° |
| 2026-05-07 21:59 | 7.71937 | -72.82008 | 35912 ft | 424 kts | 237° |
| 2026-05-07 21:59 | 7.68561 | -72.86833 | 35912 ft | 424 kts | 237° |
| 2026-05-07 22:00 | 7.65149 | -72.91713 | 35912 ft | 425 kts | 237° |
| 2026-05-07 22:00 | 7.61761 | -72.96555 | 35912 ft | 425 kts | 236° |
| 2026-05-07 22:01 | 7.58355 | -73.01417 | 35912 ft | 425 kts | 236° |
| 2026-05-07 22:01 | 7.54955 | -73.06280 | 35912 ft | 425 kts | 236° |
| 2026-05-07 22:02 | 7.51556 | -73.11137 | 35912 ft | 425 kts | 236° |
| 2026-05-07 22:02 | 7.48154 | -73.15996 | 35912 ft | 425 kts | 236° |
| 2026-05-07 22:03 | 7.44733 | -73.20881 | 35912 ft | 425 kts | 236° |
| 2026-05-07 22:03 | 7.41339 | -73.25724 | 35912 ft | 425 kts | 236° |
| 2026-05-07 22:04 | 7.37934 | -73.30579 | 35912 ft | 425 kts | 236° |
| 2026-05-07 22:04 | 7.34524 | -73.35446 | 35912 ft | 425 kts | 236° |
| 2026-05-07 22:05 | 7.31119 | -73.40301 | 35912 ft | 425 kts | 236° |
| 2026-05-07 22:05 | 7.27719 | -73.45150 | 35912 ft | 425 kts | 236° |
| 2026-05-07 22:06 | 7.24299 | -73.50023 | 35912 ft | 425 kts | 236° |
| 2026-05-07 22:06 | 7.20895 | -73.54874 | 35912 ft | 425 kts | 236° |
| 2026-05-07 22:07 | 7.17489 | -73.59716 | 35908 ft | 425 kts | 236° |
| 2026-05-07 22:07 | 7.14080 | -73.64576 | 35903 ft | 426 kts | 236° |
| 2026-05-07 22:08 | 7.10654 | -73.69452 | 35897 ft | 426 kts | 236° |
| 2026-05-07 22:08 | 7.07245 | -73.74303 | 35891 ft | 425 kts | 236° |
| 2026-05-07 22:09 | 7.03409 | -73.78826 | 35883 ft | 428 kts | 220° |
| 2026-05-07 22:09 | 7.00881 | -73.80405 | 35886 ft | 431 kts | 205° |
| 2026-05-07 22:09 | 6.98057 | -73.81345 | 35887 ft | 433 kts | 194° |
| 2026-05-07 22:10 | 6.92094 | -73.82457 | 35884 ft | 434 kts | 192° |
| 2026-05-07 22:10 | 6.86189 | -73.83614 | 35885 ft | 433 kts | 192° |
| 2026-05-07 22:11 | 6.80292 | -73.84743 | 35885 ft | 432 kts | 192° |
| 2026-05-07 22:11 | 6.74410 | -73.85843 | 35885 ft | 432 kts | 192° |
| 2026-05-07 22:12 | 6.68528 | -73.86961 | 35894 ft | 432 kts | 192° |
| 2026-05-07 22:12 | 6.62633 | -73.88068 | 35913 ft | 431 kts | 191° |
| 2026-05-07 22:13 | 6.56724 | -73.89171 | 35933 ft | 431 kts | 192° |
| 2026-05-07 22:13 | 6.50840 | -73.90278 | 35939 ft | 431 kts | 192° |
| 2026-05-07 22:14 | 6.44951 | -73.91379 | 35939 ft | 431 kts | 192° |
| 2026-05-07 22:14 | 6.39079 | -73.92480 | 35940 ft | 431 kts | 192° |
| 2026-05-07 22:15 | 6.33181 | -73.93578 | 35947 ft | 430 kts | 191° |
| 2026-05-07 22:15 | 6.27320 | -73.94672 | 35953 ft | 430 kts | 191° |
| 2026-05-07 22:16 | 6.21425 | -73.95779 | 35959 ft | 430 kts | 191° |
| 2026-05-07 22:16 | 6.18512 | -73.96324 | 35651 ft | 427 kts | 191° |
| 2026-05-07 22:16 | 6.15616 | -73.96866 | 35165 ft | 421 kts | 191° |
| 2026-05-07 22:17 | 6.12751 | -73.97398 | 34682 ft | 417 kts | 191° |
| 2026-05-07 22:17 | 6.09919 | -73.97926 | 34196 ft | 412 kts | 191° |
| 2026-05-07 22:17 | 6.07120 | -73.98450 | 33707 ft | 408 kts | 191° |
| 2026-05-07 22:17 | 6.04313 | -73.98977 | 33221 ft | 403 kts | 191° |
| 2026-05-07 22:18 | 6.01569 | -73.99490 | 32743 ft | 399 kts | 191° |
| 2026-05-07 22:18 | 5.96207 | -74.00507 | 31805 ft | 390 kts | 191° |
| 2026-05-07 22:18 | 5.93581 | -74.01008 | 31345 ft | 386 kts | 191° |
| 2026-05-07 22:19 | 5.90947 | -74.01508 | 30881 ft | 381 kts | 191° |
| 2026-05-07 22:19 | 5.88417 | -74.01987 | 30431 ft | 377 kts | 190° |
| 2026-05-07 22:19 | 5.85843 | -74.02474 | 29971 ft | 373 kts | 190° |
| 2026-05-07 22:19 | 5.83327 | -74.02951 | 29517 ft | 369 kts | 190° |
| 2026-05-07 22:20 | 5.80824 | -74.03427 | 29056 ft | 365 kts | 190° |
| 2026-05-07 22:20 | 5.78331 | -74.03902 | 28605 ft | 362 kts | 190° |
| 2026-05-07 22:20 | 5.75871 | -74.04369 | 28165 ft | 364 kts | 190° |
| 2026-05-07 22:20 | 5.73372 | -74.04844 | 27710 ft | 365 kts | 190° |
| 2026-05-07 22:21 | 5.70876 | -74.05318 | 27257 ft | 361 kts | 190° |
| 2026-05-07 22:21 | 5.68434 | -74.05781 | 26814 ft | 357 kts | 190° |
| 2026-05-07 22:21 | 5.66020 | -74.06239 | 26377 ft | 354 kts | 190° |
| 2026-05-07 22:21 | 5.63610 | -74.06696 | 25942 ft | 351 kts | 190° |
| 2026-05-07 22:22 | 5.61193 | -74.07154 | 25507 ft | 355 kts | 190° |
| 2026-05-07 22:22 | 5.58758 | -74.07616 | 25060 ft | 354 kts | 190° |
| 2026-05-07 22:22 | 5.56361 | -74.08071 | 24622 ft | 350 kts | 190° |
| 2026-05-07 22:22 | 5.54001 | -74.08518 | 24192 ft | 347 kts | 190° |
| 2026-05-07 22:23 | 5.51630 | -74.08966 | 23760 ft | 343 kts | 190° |
| 2026-05-07 22:23 | 5.49291 | -74.09411 | 23333 ft | 341 kts | 190° |
| 2026-05-07 22:23 | 5.46947 | -74.09856 | 22910 ft | 346 kts | 189° |
| 2026-05-07 22:23 | 5.44608 | -74.10376 | 22471 ft | 344 kts | 196° |
| 2026-05-07 22:24 | 5.42412 | -74.11285 | 22074 ft | 341 kts | 208° |
| 2026-05-07 22:24 | 5.40479 | -74.12611 | 22069 ft | 339 kts | 219° |
| 2026-05-07 22:24 | 5.38767 | -74.14301 | 22075 ft | 346 kts | 227° |
| 2026-05-07 22:24 | 5.37227 | -74.16087 | 21822 ft | 338 kts | 228° |
| 2026-05-07 22:25 | 5.35664 | -74.17855 | 21462 ft | 339 kts | 227° |
| 2026-05-07 22:25 | 5.34069 | -74.19632 | 21067 ft | 342 kts | 227° |
| 2026-05-07 22:25 | 5.32510 | -74.21390 | 20672 ft | 338 kts | 227° |
| 2026-05-07 22:25 | 5.30960 | -74.23142 | 20281 ft | 334 kts | 227° |
| 2026-05-07 22:26 | 5.29441 | -74.24859 | 19897 ft | 330 kts | 227° |
| 2026-05-07 22:26 | 5.27898 | -74.26601 | 19510 ft | 334 kts | 227° |
| 2026-05-07 22:26 | 5.26370 | -74.28329 | 19111 ft | 333 kts | 227° |
| 2026-05-07 22:26 | 5.24846 | -74.30096 | 18690 ft | 331 kts | 232° |
| 2026-05-07 22:27 | 5.23772 | -74.32135 | 18127 ft | 333 kts | 255° |
| 2026-05-07 22:27 | 5.23580 | -74.34382 | 18021 ft | 324 kts | 274° |
| 2026-05-07 22:27 | 5.23766 | -74.36674 | 17989 ft | 332 kts | 275° |
| 2026-05-07 22:27 | 5.23929 | -74.39005 | 17991 ft | 334 kts | 274° |
| 2026-05-07 22:28 | 5.24082 | -74.41346 | 17991 ft | 335 kts | 274° |
| 2026-05-07 22:28 | 5.24250 | -74.43665 | 17992 ft | 334 kts | 273° |
| 2026-05-07 22:28 | 5.24187 | -74.45995 | 17992 ft | 334 kts | 262° |
| 2026-05-07 22:28 | 5.23654 | -74.48258 | 17994 ft | 333 kts | 250° |
| 2026-05-07 22:29 | 5.22832 | -74.50430 | 17993 ft | 334 kts | 248° |
| 2026-05-07 22:29 | 5.22011 | -74.52606 | 17993 ft | 334 kts | 249° |
| 2026-05-07 22:29 | 5.21209 | -74.54800 | 17993 ft | 333 kts | 249° |
| 2026-05-07 22:29 | 5.20404 | -74.56966 | 17993 ft | 333 kts | 248° |
| 2026-05-07 22:30 | 5.19433 | -74.59096 | 17991 ft | 333 kts | 239° |
| 2026-05-07 22:30 | 5.18083 | -74.60945 | 17994 ft | 331 kts | 225° |
| 2026-05-07 22:30 | 5.16421 | -74.62530 | 17993 ft | 331 kts | 221° |
| 2026-05-07 22:30 | 5.14718 | -74.64113 | 17993 ft | 332 kts | 222° |
| 2026-05-07 22:31 | 5.13052 | -74.65713 | 17993 ft | 332 kts | 222° |
| 2026-05-07 22:31 | 5.11374 | -74.67314 | 17993 ft | 332 kts | 222° |
| 2026-05-07 22:31 | 5.09701 | -74.68881 | 17992 ft | 331 kts | 219° |
| 2026-05-07 22:31 | 5.07835 | -74.70274 | 17991 ft | 330 kts | 208° |
| 2026-05-07 22:32 | 5.05757 | -74.71201 | 17996 ft | 328 kts | 196° |
| 2026-05-07 22:32 | 5.03587 | -74.71855 | 17993 ft | 328 kts | 195° |
| 2026-05-07 22:32 | 5.01398 | -74.72512 | 17991 ft | 327 kts | 192° |
| 2026-05-07 22:32 | 4.99163 | -74.72772 | 17988 ft | 324 kts | 173° |
| 2026-05-07 22:33 | 4.97041 | -74.72136 | 17995 ft | 319 kts | 147° |
| 2026-05-07 22:33 | 4.95325 | -74.70762 | 17977 ft | 315 kts | 134° |
| 2026-05-07 22:33 | 4.93988 | -74.69067 | 17701 ft | 306 kts | 115° |
| 2026-05-07 22:33 | 4.93456 | -74.67007 | 17366 ft | 310 kts | 92° |
| 2026-05-07 22:34 | 4.93377 | -74.64856 | 16970 ft | 309 kts | 94° |
| 2026-05-07 22:34 | 4.93173 | -74.62715 | 16580 ft | 305 kts | 96° |
| 2026-05-07 22:34 | 4.92951 | -74.60610 | 16193 ft | 302 kts | 95° |
| 2026-05-07 22:34 | 4.92759 | -74.58515 | 15808 ft | 299 kts | 95° |
| 2026-05-07 22:35 | 4.92592 | -74.56458 | 15434 ft | 299 kts | 95° |
| 2026-05-07 22:35 | 4.92416 | -74.54364 | 15044 ft | 302 kts | 95° |
| 2026-05-07 22:35 | 4.92226 | -74.52278 | 14659 ft | 298 kts | 95° |
| 2026-05-07 22:35 | 4.92042 | -74.50223 | 14281 ft | 295 kts | 95° |
| 2026-05-07 22:36 | 4.91863 | -74.48195 | 13910 ft | 292 kts | 95° |
| 2026-05-07 22:36 | 4.91685 | -74.46161 | 13536 ft | 289 kts | 95° |
| 2026-05-07 22:36 | 4.91512 | -74.44186 | 13190 ft | 285 kts | 95° |
| 2026-05-07 22:36 | 4.91159 | -74.42257 | 12987 ft | 275 kts | 111° |
| 2026-05-07 22:37 | 4.90171 | -74.40691 | 12778 ft | 267 kts | 135° |
| 2026-05-07 22:37 | 4.88729 | -74.39471 | 12415 ft | 266 kts | 140° |
| 2026-05-07 22:37 | 4.87335 | -74.38295 | 12073 ft | 264 kts | 136° |
| 2026-05-07 22:37 | 4.86165 | -74.36939 | 11998 ft | 250 kts | 125° |
| 2026-05-07 22:38 | 4.85182 | -74.35561 | 12007 ft | 241 kts | 126° |
| 2026-05-07 22:38 | 4.84170 | -74.34231 | 11986 ft | 228 kts | 127° |
| 2026-05-07 22:38 | 4.83230 | -74.33010 | 12008 ft | 213 kts | 127° |
| 2026-05-07 22:38 | 4.82382 | -74.31892 | 12003 ft | 190 kts | 126° |
| 2026-05-07 22:39 | 4.81613 | -74.30866 | 11842 ft | 179 kts | 126° |
| 2026-05-07 22:39 | 4.80860 | -74.29874 | 11579 ft | 176 kts | 127° |
| 2026-05-07 22:39 | 4.80128 | -74.28906 | 11352 ft | 176 kts | 126° |
| 2026-05-07 22:39 | 4.79385 | -74.27925 | 11105 ft | 176 kts | 126° |
| 2026-05-07 22:40 | 4.78639 | -74.26939 | 10860 ft | 177 kts | 126° |
| 2026-05-07 22:40 | 4.77897 | -74.25960 | 10616 ft | 176 kts | 126° |
| 2026-05-07 22:40 | 4.77161 | -74.24986 | 10374 ft | 175 kts | 126° |
| 2026-05-07 22:40 | 4.76422 | -74.24012 | 10134 ft | 176 kts | 126° |
| 2026-05-07 22:41 | 4.75688 | -74.23041 | 9892 ft | 175 kts | 125° |
| 2026-05-07 22:41 | 4.74934 | -74.22044 | 9653 ft | 178 kts | 125° |
| 2026-05-07 22:41 | 4.74194 | -74.21068 | 9408 ft | 174 kts | 125° |
| 2026-05-07 22:41 | 4.73468 | -74.20110 | 9176 ft | 174 kts | 125° |
| 2026-05-07 22:42 | 4.72739 | -74.19146 | 8944 ft | 176 kts | 125° |
| 2026-05-07 22:42 | 4.72008 | -74.18182 | 8706 ft | 173 kts | 125° |
| 2026-05-07 22:42 | 4.71273 | -74.17208 | 8476 ft | 171 kts | 124° |
| 2026-05-07 22:42 | 4.70594 | -74.16303 | 8363 ft | 137 kts | 127° |
| 2026-05-07 22:43 | 4.70175 | -74.15758 | 8363 ft | 62 kts | 127° |
| 2026-05-07 22:43 | 4.70036 | -74.15572 | 8363 ft | 12 kts | 114° |
| 2026-05-07 22:43 | 4.70065 | -74.15509 | 8363 ft | 9 kts | 32° |
| 2026-05-07 22:43 | 4.70114 | -74.15474 | 8363 ft | 8 kts | 37° |
| 2026-05-07 22:44 | 4.70156 | -74.15441 | 8363 ft | 6 kts | 39° |
| 2026-05-07 22:44 | 4.70173 | -74.15406 | 8363 ft | 6 kts | 97° |
| 2026-05-07 22:44 | 4.70132 | -74.15346 | 8363 ft | 11 kts | 133° |
| 2026-05-07 22:44 | 4.70078 | -74.15276 | 8363 ft | 13 kts | 126° |
| 2026-05-07 22:45 | 4.70011 | -74.15183 | 8363 ft | 20 kts | 124° |
| 2026-05-07 22:45 | 4.69915 | -74.15058 | 8363 ft | 21 kts | 128° |
| 2026-05-07 22:45 | 4.69842 | -74.14964 | 8363 ft | 14 kts | 126° |
| 2026-05-07 22:45 | 4.69789 | -74.14891 | 8363 ft | 12 kts | 127° |
| 2026-05-07 22:46 | 4.69751 | -74.14828 | 8363 ft | 9 kts | 92° |
| 2026-05-07 22:46 | 4.69791 | -74.14779 | 8363 ft | 10 kts | 37° |
| 2026-05-07 22:46 | 4.69846 | -74.14736 | 8363 ft | 5 kts | 59° |
| 2026-05-07 22:46 | 4.69830 | -74.14694 | 8363 ft | 7 kts | 127° |
| 2026-05-07 22:47 | 4.69802 | -74.14657 | 8363 ft | 3 kts | 139° |
| 2026-05-07 22:47 | 4.69777 | -74.14663 | 8363 ft | 4 kts | 218° |
| 2026-05-07 22:47 | 4.69759 | -74.14677 | 8363 ft | 1 kts | 218° |
| 2026-05-07 22:47 | 4.69758 | -74.14678 | 8363 ft | 0 kts | 218° |